Time;durP1;ratioP1;P1;durP2;ratioP2;P2;SDS_P1;SDS_P2;PMS_P1;PMS_P2;Temp;Humidity;BMP_temperature;BMP_pressure;BME280_temperature;BME280_humidity;BME280_pressure;Samples;Min_cycle;Max_cycle;Signal;HPM_P1;HPM_P2
2022/10/03 00:00:25;;;;;;;11.63;1.40;;;;;;;23.83;55.25;100767.34;2100008;28;20487;-73
2022/10/03 00:02:02;;;;;;;6.55;1.75;;;;;;;23.82;55.24;100765.63;2101246;28;20106;-74
2022/10/03 00:03:48;;;;;;;7.22;2.10;;;;;;;23.82;55.08;100767.44;2096587;28;20048;-74
2022/10/03 00:05:28;;;;;;;8.75;2.33;;;;;;;23.81;55.30;100765.66;2096995;28;20684;-73
2022/10/03 00:07:01;;;;;;;5.80;1.52;;;;;;;23.79;55.17;100771.09;2112101;27;20044;-74
2022/10/03 00:08:42;;;;;;;10.57;1.70;;;;;;;23.78;55.44;100763.97;2111345;28;20067;-74
2022/10/03 00:10:17;;;;;;;7.15;1.52;;;;;;;23.79;55.58;100767.53;2106987;28;20044;-74
2022/10/03 00:11:53;;;;;;;7.30;1.50;;;;;;;23.78;55.74;100760.38;2111464;28;20039;-73
2022/10/03 00:13:24;;;;;;;7.15;1.52;;;;;;;23.76;55.70;100757.72;2112787;28;20048;-73
2022/10/03 00:14:59;;;;;;;10.05;1.80;;;;;;;23.77;55.55;100751.41;2110587;28;20044;-73
2022/10/03 00:16:35;;;;;;;7.63;1.80;;;;;;;23.78;55.30;100750.47;2108447;27;20039;-73
2022/10/03 00:18:05;;;;;;;9.82;1.67;;;;;;;23.77;55.47;100756.81;2098022;28;20080;-73
2022/10/03 00:19:40;;;;;;;9.05;2.17;;;;;;;23.78;55.49;100746.91;2100535;28;20070;-73
2022/10/03 00:21:21;;;;;;;8.65;2.40;;;;;;;23.75;55.58;100758.69;2094701;28;20051;-73
2022/10/03 00:22:52;;;;;;;9.20;1.95;;;;;;;23.74;55.59;100765.03;2103568;28;20064;-73
2022/10/03 00:24:26;;;;;;;9.50;2.10;;;;;;;23.73;55.67;100760.56;2096126;28;20040;-73
2022/10/03 00:26:25;;;;;;;8.60;2.05;;;;;;;23.72;55.95;100764.19;2095919;28;20056;-73
2022/10/03 00:27:52;;;;;;;6.28;2.13;;;;;;;23.71;55.95;100751.66;2105188;28;20056;-74
2022/10/03 00:29:45;;;;;;;7.75;1.40;;;;;;;23.71;56.17;100748.06;2102519;28;20048;-73
2022/10/03 00:31:11;;;;;;;;;;;;;;;23.66;56.26;100745.56;2096522;28;20040;-73
2022/10/03 00:32:47;;;;;;;11.70;1.75;;;;;;;23.65;56.23;100751.88;2110020;28;19920;-74
2022/10/03 00:34:22;;;;;;;4.43;1.05;;;;;;;23.67;56.39;100758.09;2109963;28;20042;-73
2022/10/03 00:36:02;;;;;;;9.38;1.77;;;;;;;23.68;56.53;100765.25;2104215;28;20044;-74
2022/10/03 00:37:29;;;;;;;6.55;1.77;;;;;;;23.67;56.59;100762.63;2110417;28;20040;-73
2022/10/03 00:39:09;;;;;;;7.72;1.50;;;;;;;23.66;56.67;100761.72;2100565;28;20079;-73
2022/10/03 00:41:08;;;;;;;11.32;2.08;;;;;;;23.66;56.48;100767.13;2104999;28;20529;-73
2022/10/03 00:43:16;;;;;;;7.35;1.45;;;;;;;23.64;56.81;100763.59;2104705;28;20155;-74
2022/10/03 00:45:01;;;;;;;11.02;1.80;;;;;;;23.64;56.65;100771.69;2087862;28;20111;-73
2022/10/03 00:47:05;;;;;;;3.50;1.20;;;;;;;23.63;56.64;100772.63;2099949;28;20941;-73
2022/10/03 00:49:15;;;;;;;9.10;1.73;;;;;;;23.63;56.87;100761.00;2066055;28;20068;-73
2022/10/03 00:51:00;;;;;;;8.10;1.75;;;;;;;23.61;56.85;100766.44;2095925;28;20102;-73
2022/10/03 00:52:38;;;;;;;5.80;1.90;;;;;;;23.62;57.13;100764.63;2104415;28;20278;-74
2022/10/03 00:54:19;;;;;;;9.85;1.77;;;;;;;23.62;56.96;100762.81;2095917;28;20133;-74
2022/10/03 00:55:59;;;;;;;8.38;1.48;;;;;;;23.62;56.98;100762.81;2096455;28;20155;-73
2022/10/03 00:57:37;;;;;;;6.15;1.48;;;;;;;23.61;57.15;100749.38;2102865;28;20095;-73
2022/10/03 00:59:15;;;;;;;7.82;2.22;;;;;;;23.61;56.87;100752.06;2093336;28;20040;-74
2022/10/03 01:00:41;;;;;;;4.47;1.60;;;;;;;23.61;56.89;100736.78;2112738;28;20145;-72
2022/10/03 01:02:27;;;;;;;7.97;2.55;;;;;;;23.65;56.78;100743.78;2110988;28;20051;-73
2022/10/03 01:04:02;;;;;;;5.97;2.08;;;;;;;23.66;56.93;100745.56;2111639;28;20139;-73
2022/10/03 01:05:36;;;;;;;8.55;1.98;;;;;;;23.66;57.00;100740.16;2087310;28;20045;-73
2022/10/03 01:07:12;;;;;;;5.97;1.60;;;;;;;23.65;57.07;100742.91;2106806;27;20040;-73
2022/10/03 01:09:05;;;;;;;10.38;2.25;;;;;;;23.64;57.22;100733.06;2096574;28;20117;-72
2022/10/03 01:10:35;;;;;;;6.70;1.50;;;;;;;23.62;57.19;100735.84;2095881;28;20103;-73
2022/10/03 01:12:10;;;;;;;8.73;1.90;;;;;;;23.62;57.27;100722.38;2094453;28;20053;-73
2022/10/03 01:13:46;;;;;;;8.75;2.30;;;;;;;23.62;57.19;100718.78;2099911;28;20570;-72
2022/10/03 01:15:16;;;;;;;7.07;1.85;;;;;;;23.60;57.39;100728.75;2110840;28;20422;-73
2022/10/03 01:16:53;;;;;;;7.35;2.10;;;;;;;23.61;57.50;100733.19;2095198;28;20169;-73
2022/10/03 01:18:29;;;;;;;12.32;1.75;;;;;;;23.59;57.57;100741.34;2102910;28;20043;-73
2022/10/03 01:20:13;;;;;;;12.55;2.65;;;;;;;23.58;57.58;100736.00;2094609;28;20068;-73
2022/10/03 01:21:46;;;;;;;5.13;1.40;;;;;;;23.57;57.88;100736.94;2096024;28;20051;-73
2022/10/03 01:23:33;;;;;;;7.28;2.00;;;;;;;23.56;57.81;100737.91;2095097;28;20048;-72
2022/10/03 01:25:00;;;;;;;7.80;1.42;;;;;;;23.56;57.66;100740.59;2105826;28;20089;-73
2022/10/03 01:27:03;;;;;;;7.72;1.70;;;;;;;23.54;57.59;100729.88;2099373;28;20046;-72
2022/10/03 01:30:41;;;;;;;8.93;1.90;;;;;;;23.47;57.45;100727.41;2054796;28;19976;-72
2022/10/03 01:32:09;;;;;;;6.13;1.45;;;;;;;23.47;57.62;100731.03;2067457;28;20045;-73
2022/10/03 01:33:38;;;;;;;9.27;1.63;;;;;;;23.47;57.50;100736.41;2066338;28;20128;-74
2022/10/03 01:35:10;;;;;;;7.35;2.05;;;;;;;23.47;57.78;100727.41;2060264;28;20082;-74
2022/10/03 01:36:35;;;;;;;;;;;;;;;23.44;57.72;100737.38;2102602;28;20084;-74
2022/10/03 01:38:14;;;;;;;7.05;1.45;;;;;;;23.46;57.79;100737.31;2115191;27;19923;-74
2022/10/03 01:39:42;;;;;;;6.18;1.42;;;;;;;23.47;57.58;100736.41;2100812;28;20531;-74
2022/10/03 01:41:14;;;;;;;6.20;1.50;;;;;;;23.47;57.26;100736.41;2109359;28;20039;-74
2022/10/03 01:42:45;;;;;;;7.10;1.80;;;;;;;23.48;57.27;100723.84;2109787;28;20100;-74
2022/10/03 01:44:17;;;;;;;6.20;2.05;;;;;;;23.50;56.86;100714.72;2103688;28;20035;-74
2022/10/03 01:45:47;;;;;;;4.93;1.17;;;;;;;23.51;56.76;100718.31;2096529;28;20527;-74
2022/10/03 01:47:24;;;;;;;6.88;1.98;;;;;;;23.49;56.79;100713.00;2092817;28;20555;-74
2022/10/03 01:48:59;;;;;;;7.22;2.20;;;;;;;23.51;56.87;100711.09;2093379;28;20503;-74
2022/10/03 01:50:29;;;;;;;10.35;1.77;;;;;;;23.50;56.73;100695.84;2108923;28;21981;-74
2022/10/03 01:52:00;;;;;;;7.20;2.28;;;;;;;23.50;56.83;100703.94;2094199;28;20052;-75
2022/10/03 01:53:34;;;;;;;9.55;1.85;;;;;;;23.48;57.02;100699.56;2094811;28;20088;-74
2022/10/03 01:55:05;;;;;;;11.38;1.80;;;;;;;23.45;57.38;100698.72;2104494;28;20054;-74
2022/10/03 01:56:35;;;;;;;11.50;2.33;;;;;;;23.45;57.35;100700.53;2094604;28;20139;-73
2022/10/03 01:58:01;;;;;;;8.07;2.05;;;;;;;23.43;57.77;100689.78;2100322;28;20150;-74
2022/10/03 01:59:37;;;;;;;4.97;1.75;;;;;;;23.44;57.74;100707.72;2112805;28;20036;-74
2022/10/03 02:01:07;;;;;;;7.53;2.22;;;;;;;23.43;58.02;100711.34;2105063;28;20055;-74
2022/10/03 02:02:35;;;;;;;12.45;2.20;;;;;;;23.42;57.94;100709.63;2094694;28;20060;-74
2022/10/03 02:04:06;;;;;;;6.75;1.90;;;;;;;23.41;58.26;100713.25;2093688;28;20075;-74
2022/10/03 02:05:38;;;;;;;10.13;2.10;;;;;;;23.41;58.59;100707.88;2101531;28;20594;-74
2022/10/03 02:07:11;;;;;;;6.65;1.70;;;;;;;23.40;58.83;100724.09;2096398;28;20583;-74
2022/10/03 02:08:48;;;;;;;11.10;2.10;;;;;;;23.40;58.59;100729.47;2101036;28;20147;-74
2022/10/03 02:10:23;;;;;;;9.20;1.90;;;;;;;23.40;58.74;100733.03;2110960;28;20043;-74
2022/10/03 02:12:03;;;;;;;8.30;1.85;;;;;;;23.38;58.74;100732.22;2112272;28;20567;-74
2022/10/03 02:13:31;;;;;;;;;;;;;;;23.32;58.67;100718.09;2111318;28;20047;-74
2022/10/03 02:15:01;;;;;;;10.55;2.05;;;;;;;23.31;58.77;100721.72;2108443;28;20419;-74
2022/10/03 02:16:32;;;;;;;5.63;1.75;;;;;;;23.32;58.55;100715.41;2102587;28;20492;-75
2022/10/03 02:17:58;;;;;;;6.78;2.25;;;;;;;23.33;58.35;100728.81;2094705;28;20395;-73
2022/10/03 02:19:26;;;;;;;9.50;1.88;;;;;;;23.35;58.21;100723.38;2096392;28;20048;-74
2022/10/03 02:20:53;;;;;;;8.50;2.00;;;;;;;23.35;58.28;100726.06;2092193;28;20127;-74
2022/10/03 02:22:27;;;;;;;11.82;2.95;;;;;;;23.33;58.47;100723.44;2115488;27;20169;-73
2022/10/03 02:24:04;;;;;;;5.78;1.80;;;;;;;23.33;58.66;100733.31;2097973;28;20054;-73
2022/10/03 02:25:41;;;;;;;6.45;1.80;;;;;;;23.33;58.51;100727.94;2095631;28;20060;-73
2022/10/03 02:27:30;;;;;;;5.55;1.52;;;;;;;23.31;58.63;100724.41;2103721;28;20517;-73
2022/10/03 02:29:11;;;;;;;8.45;1.40;;;;;;;23.29;58.58;100723.63;2111174;28;20044;-73
2022/10/03 02:30:46;;;;;;;6.72;1.65;;;;;;;23.26;58.60;100727.28;2104369;28;20102;-72
2022/10/03 02:32:38;;;;;;;8.52;1.73;;;;;;;23.26;58.63;100726.41;2112000;28;20055;-73
2022/10/03 02:34:24;;;;;;;9.52;1.83;;;;;;;23.25;58.91;100717.44;2097005;28;20048;-73
2022/10/03 02:36:15;;;;;;;7.60;1.73;;;;;;;23.24;58.79;100722.88;2104226;28;20110;-73
2022/10/03 02:38:05;;;;;;;8.73;1.70;;;;;;;23.23;58.94;100719.34;2104433;28;20048;-73
2022/10/03 02:39:58;;;;;;;5.13;1.70;;;;;;;23.22;59.29;100719.38;2103720;28;20044;-73
2022/10/03 02:41:58;;;;;;;7.57;1.50;;;;;;;23.23;59.31;100719.34;2095285;28;20052;-73
2022/10/03 02:43:54;;;;;;;9.52;2.40;;;;;;;23.24;59.17;100722.88;2095350;28;20044;-73
2022/10/03 02:45:55;;;;;;;6.40;1.90;;;;;;;23.22;59.40;100730.16;2095964;28;20047;-74
2022/10/03 02:47:55;;;;;;;10.65;1.80;;;;;;;23.20;59.64;100730.22;2083038;28;20083;-73
2022/10/03 02:49:51;;;;;;;12.73;2.67;;;;;;;23.19;59.81;100733.84;2087712;28;20102;-73
2022/10/03 02:51:47;;;;;;;10.10;1.83;;;;;;;23.20;60.04;100724.81;2103912;28;20102;-72
2022/10/03 02:53:48;;;;;;;9.43;2.17;;;;;;;23.22;60.07;100727.47;2094529;28;20048;-73
2022/10/03 02:55:44;;;;;;;10.63;1.80;;;;;;;23.22;60.10;100731.03;2104422;28;20105;-74
2022/10/03 02:57:42;;;;;;;4.00;1.50;;;;;;;23.22;59.90;100724.78;2095895;28;20471;-73
2022/10/03 02:59:32;;;;;;;6.38;1.40;;;;;;;23.21;59.87;100725.72;2104142;28;20098;-72
2022/10/03 03:01:43;;;;;;;8.25;2.00;;;;;;;23.17;59.98;100714.16;2103562;28;20104;-73
2022/10/03 03:03:30;;;;;;;7.78;1.80;;;;;;;23.15;59.97;100716.03;2110016;28;20043;-73
2022/10/03 03:05:19;;;;;;;10.93;1.75;;;;;;;23.13;59.88;100699.06;2111002;28;20051;-73
2022/10/03 03:07:02;;;;;;;10.85;1.65;;;;;;;23.13;59.74;100701.75;2103964;28;20129;-74
2022/10/03 03:08:59;;;;;;;7.90;1.70;;;;;;;23.13;59.37;100696.34;2091525;28;20123;-72
2022/10/03 03:10:35;;;;;;;8.13;1.98;;;;;;;23.13;59.34;100692.78;2101641;28;21004;-72
2022/10/03 03:12:18;;;;;;;14.20;2.45;;;;;;;23.13;59.23;100690.09;2094549;28;20053;-74
2022/10/03 03:14:08;;;;;;;6.25;1.60;;;;;;;23.13;59.21;100679.31;2107935;28;20549;-73
2022/10/03 03:16:00;;;;;;;5.90;1.70;;;;;;;23.13;59.37;100684.69;2071260;28;20077;-73
2022/10/03 03:17:33;;;;;;;10.35;2.15;;;;;;;23.13;59.45;100692.78;2095776;28;20114;-73
2022/10/03 03:19:17;;;;;;;9.57;1.80;;;;;;;23.13;59.62;100690.09;2107478;28;20061;-73
2022/10/03 03:20:53;;;;;;;10.43;2.40;;;;;;;23.14;59.80;100695.44;2088130;28;20179;-72
2022/10/03 03:22:31;;;;;;;8.00;1.70;;;;;;;23.14;59.93;100690.03;2102338;28;20066;-73
2022/10/03 03:24:37;;;;;;;8.90;2.30;;;;;;;23.12;60.05;100697.28;2101492;28;20048;-72
2022/10/03 03:26:17;;;;;;;9.05;2.33;;;;;;;23.10;59.96;100707.25;2081191;28;20041;-73
2022/10/03 03:27:52;;;;;;;7.05;1.92;;;;;;;23.08;59.91;100695.66;2102582;28;20039;-73
2022/10/03 03:29:25;;;;;;;12.15;2.03;;;;;;;23.07;59.75;100714.56;2111171;28;20047;-73
2022/10/03 03:31:05;;;;;;;14.77;3.17;;;;;;;23.05;59.86;100702.03;2103179;28;20411;-73
2022/10/03 03:32:39;;;;;;;5.95;1.60;;;;;;;23.04;59.67;100719.09;2102218;28;20047;-73
2022/10/03 03:34:13;;;;;;;9.20;2.20;;;;;;;23.02;59.30;100712.91;2095828;28;20041;-73
2022/10/03 03:35:52;;;;;;;4.65;1.75;;;;;;;23.03;59.19;100722.75;2101063;28;20055;-73
2022/10/03 03:37:21;;;;;;;9.30;1.70;;;;;;;23.02;59.25;100720.13;2104159;28;20086;-73
2022/10/03 03:38:55;;;;;;;6.88;1.70;;;;;;;23.02;59.63;100714.72;2096843;28;20052;-72
2022/10/03 03:40:35;;;;;;;9.25;2.05;;;;;;;23.03;60.00;100722.75;2094798;28;20496;-73
2022/10/03 03:42:13;;;;;;;6.53;1.73;;;;;;;23.03;60.27;100728.16;2098342;28;20469;-73
2022/10/03 03:43:49;;;;;;;9.60;2.03;;;;;;;23.02;60.56;100721.00;2106419;28;20567;-73
2022/10/03 03:45:28;;;;;;;16.08;2.30;;;;;;;23.02;60.92;100725.50;2107089;28;20036;-73
2022/10/03 03:47:07;;;;;;;10.27;2.00;;;;;;;23.00;61.48;100730.06;2103276;28;20060;-73
2022/10/03 03:48:53;;;;;;;7.05;2.30;;;;;;;22.98;61.92;100726.53;2103904;28;20044;-73
2022/10/03 03:50:31;;;;;;;11.50;2.05;;;;;;;22.97;62.07;100714.03;2094818;28;20131;-73
2022/10/03 03:52:15;;;;;;;8.10;1.77;;;;;;;22.95;62.30;100716.78;2102965;28;20044;-73
2022/10/03 03:54:11;;;;;;;7.93;2.78;;;;;;;22.93;62.40;100709.66;2103305;28;20629;-73
2022/10/03 03:56:13;;;;;;;12.88;3.15;;;;;;;22.90;62.62;100709.78;2099174;28;20044;-73
2022/10/03 03:58:01;;;;;;;5.47;1.88;;;;;;;22.88;62.40;100711.66;2083948;28;20059;-73
2022/10/03 03:59:42;;;;;;;9.90;2.17;;;;;;;22.87;62.18;100709.88;2104841;28;20036;-73
2022/10/03 04:01:33;;;;;;;7.75;1.95;;;;;;;22.87;61.77;100688.34;2102078;28;20052;-72
2022/10/03 04:03:08;;;;;;;11.43;2.47;;;;;;;22.87;61.73;100685.66;2095066;28;20102;-73
2022/10/03 04:04:46;;;;;;;7.78;1.80;;;;;;;22.88;61.53;100690.13;2102659;28;20040;-73
2022/10/03 04:06:37;;;;;;;8.50;2.03;;;;;;;22.87;61.51;100683.84;2092152;28;20055;-73
2022/10/03 04:08:18;;;;;;;4.88;1.50;;;;;;;22.86;61.33;100686.59;2119028;28;20047;-73
2022/10/03 04:09:59;;;;;;;11.70;2.13;;;;;;;22.87;61.02;100701.81;2096926;28;20654;-73
2022/10/03 04:11:33;;;;;;;7.60;2.00;;;;;;;22.86;60.83;100706.31;2103772;28;20062;-73
2022/10/03 04:13:27;;;;;;;10.90;1.98;;;;;;;22.87;60.70;100710.78;2103790;28;20434;-73
2022/10/03 04:15:11;;;;;;;10.60;2.40;;;;;;;22.88;60.49;100701.75;2103798;28;20134;-74
2022/10/03 04:18:56;;;;;;;6.43;1.60;;;;;;;22.91;59.77;100722.28;2105649;28;20056;-74
2022/10/03 04:20:34;;;;;;;6.38;1.60;;;;;;;22.93;59.49;100729.41;2088856;28;20049;-73
2022/10/03 04:22:15;;;;;;;8.13;1.58;;;;;;;22.94;59.33;100730.28;2117804;27;20550;-73
2022/10/03 04:24:06;;;;;;;7.00;2.58;;;;;;;22.94;59.30;100739.25;2101595;28;20456;-73
2022/10/03 04:25:53;;;;;;;5.85;1.88;;;;;;;22.96;59.32;100733.81;2120973;27;20058;-73
2022/10/03 04:27:39;;;;;;;9.75;2.10;;;;;;;22.96;59.44;100739.19;2097044;28;20216;-73
2022/10/03 04:29:48;;;;;;;8.00;1.63;;;;;;;22.97;59.32;100738.25;2105658;28;20139;-73
2022/10/03 04:31:24;;;;;;;8.50;2.03;;;;;;;22.98;59.46;100745.38;2078530;28;20037;-74
2022/10/03 04:33:06;;;;;;;8.57;2.03;;;;;;;22.99;59.51;100747.16;2109383;28;20044;-73
2022/10/03 04:34:43;;;;;;;8.65;2.50;;;;;;;22.99;59.55;100737.25;2113222;28;20126;-74
2022/10/03 04:36:25;;;;;;;4.38;1.50;;;;;;;23.01;59.35;100734.50;2103544;28;20048;-73
2022/10/03 04:37:57;;;;;;;6.07;1.63;;;;;;;23.02;59.29;100728.19;2119562;27;20057;-73
2022/10/03 04:39:29;;;;;;;5.93;1.42;;;;;;;23.05;59.03;100728.06;2107964;28;20036;-73
2022/10/03 04:41:03;;;;;;;11.38;1.98;;;;;;;23.05;58.68;100728.06;2090297;28;20049;-75
2022/10/03 04:42:39;;;;;;;8.15;1.75;;;;;;;23.08;58.44;100721.72;2110277;28;20581;-74
2022/10/03 04:44:12;;;;;;;6.43;1.90;;;;;;;23.11;58.40;100718.88;2103783;28;20060;-74
2022/10/03 04:45:48;;;;;;;;;;;;;;;23.13;58.61;100708.94;2112421;28;20039;-74
2022/10/03 04:47:19;;;;;;;6.15;1.65;;;;;;;23.26;58.62;100713.81;2096585;28;19920;-74
2022/10/03 04:48:49;;;;;;;5.82;1.30;;;;;;;23.39;58.30;100703.47;2101603;28;20048;-74
2022/10/03 04:50:29;;;;;;;6.22;1.60;;;;;;;23.54;57.69;100705.59;2099705;28;20136;-73
2022/10/03 04:52:03;;;;;;;9.00;1.50;;;;;;;23.67;57.28;100689.81;2105016;28;20044;-74
2022/10/03 04:53:42;;;;;;;7.28;2.03;;;;;;;23.79;57.30;100697.44;2085475;28;20051;-74
2022/10/03 04:55:18;;;;;;;6.35;2.10;;;;;;;23.92;57.09;100703.22;2103857;28;20143;-73
2022/10/03 04:56:49;;;;;;;8.80;1.65;;;;;;;24.03;56.84;100706.34;2096095;28;20036;-74
2022/10/03 04:58:25;;;;;;;8.05;1.55;;;;;;;24.11;56.77;100706.91;2101825;28;20044;-73
2022/10/03 04:59:53;;;;;;;5.88;1.63;;;;;;;24.13;56.73;100687.03;2108824;28;20044;-73
2022/10/03 05:01:20;;;;;;;6.07;1.90;;;;;;;24.17;56.53;100709.34;2100878;28;20056;-74
2022/10/03 05:02:50;;;;;;;3.20;1.35;;;;;;;24.26;56.23;100713.53;2100577;28;20063;-74
2022/10/03 05:04:25;;;;;;;10.35;2.63;;;;;;;24.38;55.80;100718.41;2104210;28;20554;-75
2022/10/03 05:05:55;;;;;;;6.13;1.70;;;;;;;24.47;55.29;100721.63;2112445;28;20051;-74
2022/10/03 05:07:26;;;;;;;5.18;1.42;;;;;;;24.55;54.82;100710.47;2103925;28;20048;-74
2022/10/03 05:08:58;;;;;;;3.50;1.58;;;;;;;24.65;54.32;100719.06;2095042;28;20045;-74
2022/10/03 05:10:29;;;;;;;8.38;1.58;;;;;;;24.71;54.25;100722.38;2103482;28;20125;-74
2022/10/03 05:12:02;;;;;;;4.30;1.55;;;;;;;24.80;54.09;100716.59;2103481;28;20139;-75
2022/10/03 05:13:37;;;;;;;6.25;1.60;;;;;;;24.91;53.87;100713.44;2104372;28;20103;-74
2022/10/03 05:15:22;;;;;;;8.93;1.13;;;;;;;25.01;53.73;100730.97;2100683;28;20415;-74
2022/10/03 05:16:51;;;;;;;6.85;1.40;;;;;;;25.13;53.82;100725.06;2104672;28;20052;-74
2022/10/03 05:18:19;;;;;;;5.95;1.33;;;;;;;25.24;53.49;100732.66;2107939;28;20116;-74
2022/10/03 05:19:50;;;;;;;5.38;1.23;;;;;;;25.36;53.92;100726.69;2110859;28;20129;-74
2022/10/03 05:21:16;;;;;;;5.88;1.35;;;;;;;25.46;53.80;100728.03;2103871;28;20143;-74
2022/10/03 05:22:48;;;;;;;4.68;1.23;;;;;;;25.57;53.95;100720.31;2113819;27;20440;-74
2022/10/03 05:24:23;;;;;;;5.20;1.30;;;;;;;25.67;53.98;100731.56;2105596;28;20077;-74
2022/10/03 05:25:58;;;;;;;5.47;1.48;;;;;;;25.75;53.98;100735.69;2096528;28;20589;-74
2022/10/03 05:27:32;;;;;;;5.28;1.13;;;;;;;25.84;53.84;100731.66;2104340;28;20039;-74
2022/10/03 05:29:04;;;;;;;5.78;1.55;;;;;;;25.92;53.87;100734.00;2108648;28;20047;-74
2022/10/03 05:30:40;;;;;;;6.75;1.35;;;;;;;26.01;53.53;100734.41;2111307;27;20074;-74
2022/10/03 05:32:17;;;;;;;4.05;1.00;;;;;;;26.11;53.37;100734.88;2103067;28;21019;-74
2022/10/03 05:33:47;;;;;;;18.85;1.23;;;;;;;26.18;53.15;100734.50;2105594;28;20052;-74
2022/10/03 05:35:40;;;;;;;4.47;0.95;;;;;;;26.31;53.15;100740.22;2096672;28;20057;-74
2022/10/03 05:37:21;;;;;;;3.92;1.08;;;;;;;26.44;52.92;100740.47;2101744;28;20174;-74
2022/10/03 05:39:29;;;;;;;6.82;0.98;;;;;;;26.53;52.71;100748.09;2104033;28;20047;-74
2022/10/03 05:41:03;;;;;;;3.97;1.38;;;;;;;26.60;52.66;100746.84;2081264;28;20048;-74
2022/10/03 05:42:39;;;;;;;4.93;0.95;;;;;;;26.64;52.18;100732.22;2104063;28;20048;-73
2022/10/03 05:44:09;;;;;;;5.82;1.27;;;;;;;26.67;52.13;100737.44;2104261;28;20047;-74
2022/10/03 05:45:47;;;;;;;2.95;1.17;;;;;;;26.77;52.15;100746.00;2105742;28;20049;-74
2022/10/03 05:49:09;;;;;;;4.35;1.20;;;;;;;26.98;51.78;100736.75;2100957;28;20048;-74
2022/10/03 05:50:42;;;;;;;6.15;0.98;;;;;;;27.08;51.47;100740.75;2103922;28;20527;-74
2022/10/03 05:52:33;;;;;;;4.53;1.00;;;;;;;27.21;51.17;100744.56;2094958;28;20045;-74
2022/10/03 05:54:25;;;;;;;3.75;1.15;;;;;;;27.38;51.10;100743.63;2102173;28;20044;-74
2022/10/03 05:56:03;;;;;;;3.75;1.05;;;;;;;27.54;51.08;100752.75;2104769;28;20130;-74
2022/10/03 05:57:43;;;;;;;7.40;1.10;;;;;;;27.62;51.02;100745.06;2096554;28;20051;-73
2022/10/03 05:59:37;;;;;;;9.45;1.13;;;;;;;27.60;51.04;100746.09;2102042;28;20047;-74
2022/10/03 06:01:33;;;;;;;6.18;1.00;;;;;;;27.67;51.55;100747.50;2101267;28;20043;-73
2022/10/03 06:03:50;;;;;;;6.63;1.10;;;;;;;27.79;51.46;100751.38;2105088;28;20109;-73
2022/10/03 06:05:35;;;;;;;5.80;1.00;;;;;;;27.90;51.25;100736.22;2107065;28;20800;-73
2022/10/03 06:07:14;;;;;;;6.90;1.10;;;;;;;27.97;51.07;100732.22;2110869;28;20040;-74
2022/10/03 06:08:51;;;;;;;6.97;0.98;;;;;;;28.02;50.77;100732.84;2104246;28;20100;-73
2022/10/03 06:10:44;;;;;;;6.05;1.00;;;;;;;28.08;51.02;100735.22;2113140;27;20074;-74
2022/10/03 06:12:13;;;;;;;7.45;1.27;;;;;;;27.10;55.65;100735.25;2104065;28;20039;-76
2022/10/03 06:13:55;;;;;;;7.03;1.63;;;;;;;26.03;58.42;100729.81;2109037;28;20104;-75
2022/10/03 06:15:54;;;;;;;6.00;1.35;;;;;;;25.69;59.94;100741.38;2104024;28;20075;-76
2022/10/03 06:17:32;;;;;;;6.68;0.98;;;;;;;25.66;60.31;100748.78;2104667;28;20593;-75
2022/10/03 06:19:13;;;;;;;4.38;0.85;;;;;;;25.65;60.54;100747.91;2105149;28;20592;-75
2022/10/03 06:21:16;;;;;;;5.03;1.10;;;;;;;25.57;60.74;100741.97;2105997;28;20051;-75
2022/10/03 06:23:08;;;;;;;8.73;1.35;;;;;;;25.56;60.50;100753.69;2104941;28;20844;-74
2022/10/03 06:25:17;;;;;;;9.48;1.27;;;;;;;25.71;59.91;100755.72;2099790;28;20522;-75
2022/10/03 06:27:13;;;;;;;5.45;1.33;;;;;;;25.96;59.29;100752.72;2108040;27;20522;-74
2022/10/03 06:29:23;;;;;;;4.00;1.13;;;;;;;26.19;58.81;100752.47;2103991;28;20047;-74
2022/10/03 06:31:12;;;;;;;6.63;1.10;;;;;;;26.35;58.55;100747.22;2081084;28;20394;-74
2022/10/03 06:33:16;;;;;;;4.38;1.02;;;;;;;26.57;58.13;100745.19;2102162;28;20455;-74
2022/10/03 06:35:23;;;;;;;8.02;1.38;;;;;;;26.65;57.40;100733.09;2086290;28;20056;-75
2022/10/03 06:37:10;;;;;;;4.68;1.00;;;;;;;26.51;57.57;100737.38;2096302;28;20567;-75
2022/10/03 06:39:08;;;;;;;3.05;1.27;;;;;;;26.62;57.48;100744.06;2105138;28;20040;-74
2022/10/03 06:41:01;;;;;;;6.85;1.05;;;;;;;26.79;57.32;100735.94;2104723;28;20565;-75
2022/10/03 06:43:04;;;;;;;7.22;1.08;;;;;;;26.90;56.78;100718.22;2099123;28;20707;-75
2022/10/03 06:44:47;;;;;;;4.65;0.65;;;;;;;26.99;56.70;100722.25;2103750;28;20105;-74
2022/10/03 06:46:45;;;;;;;5.93;1.05;;;;;;;27.03;56.52;100725.69;2111009;28;20044;-75
2022/10/03 06:48:41;;;;;;;4.75;1.02;;;;;;;27.05;56.00;100711.09;2104570;28;20062;-74
2022/10/03 06:50:45;;;;;;;5.93;0.98;;;;;;;27.05;55.62;100707.50;2096214;28;20045;-75
2022/10/03 06:52:36;;;;;;;3.63;1.00;;;;;;;27.03;55.64;100713.03;2080250;28;20091;-75
2022/10/03 06:54:39;;;;;;;5.95;0.85;;;;;;;27.15;55.06;100714.19;2093902;28;21070;-76
2022/10/03 06:56:23;;;;;;;5.90;0.80;;;;;;;27.36;54.68;100715.75;2113036;28;20479;-75
2022/10/03 06:58:36;;;;;;;6.03;0.88;;;;;;;27.33;53.79;100724.03;2113124;28;20087;-75
2022/10/03 07:00:10;;;;;;;5.97;0.93;;;;;;;27.31;53.44;100724.13;2105817;28;20491;-75
2022/10/03 07:01:55;;;;;;;5.82;1.00;;;;;;;27.53;52.30;100726.56;2110424;28;20040;-75
2022/10/03 07:03:53;;;;;;;4.50;0.70;;;;;;;27.69;51.87;100730.19;2108969;28;20483;-76
2022/10/03 07:05:59;;;;;;;6.40;1.10;;;;;;;27.70;51.66;100745.50;2103668;28;20044;-76
2022/10/03 07:07:56;;;;;;;4.00;1.05;;;;;;;27.86;51.63;100744.63;2111919;28;20070;-76
2022/10/03 07:10:15;;;;;;;3.72;1.10;;;;;;;28.07;51.19;100747.03;2089831;28;20084;-76
2022/10/03 07:12:03;;;;;;;4.38;1.05;;;;;;;28.27;51.00;100750.47;2083929;28;20037;-77
2022/10/03 07:13:52;;;;;;;3.75;1.00;;;;;;;28.49;50.54;100748.22;2072934;28;20041;-76
2022/10/03 07:15:48;;;;;;;6.68;1.02;;;;;;;28.58;49.77;100752.25;2078668;28;20088;-76
2022/10/03 07:17:38;;;;;;;5.55;1.00;;;;;;;28.63;49.59;100745.56;2096284;28;20056;-75
2022/10/03 07:19:29;;;;;;;9.20;1.20;;;;;;;28.65;48.96;100738.22;2096273;28;20658;-79
2022/10/03 07:21:20;;;;;;;1.52;0.65;;;;;;;28.77;47.97;100753.81;2107938;28;20044;-81
2022/10/03 07:23:21;;;;;;;3.85;1.02;;;;;;;28.93;46.99;100746.50;2104726;28;20054;-79
2022/10/03 07:25:24;;;;;;;3.08;0.93;;;;;;;28.91;46.45;100744.84;2099924;28;20150;-80
2022/10/03 07:27:20;;;;;;;5.75;1.02;;;;;;;29.00;46.07;100746.13;2110400;28;20083;-77
2022/10/03 07:29:17;;;;;;;4.40;0.80;;;;;;;29.14;45.82;100740.72;2093720;28;20131;-78
2022/10/03 07:30:58;;;;;;;5.72;0.80;;;;;;;29.16;45.62;100746.91;2112658;28;20051;-78
2022/10/03 07:32:59;;;;;;;3.65;1.20;;;;;;;29.32;44.90;100745.88;2118382;28;20107;-79
2022/10/03 07:34:50;;;;;;;4.13;0.82;;;;;;;29.48;44.67;100743.09;2094616;28;20048;-79
2022/10/03 07:38:59;;;;;;;6.18;1.20;;;;;;;29.79;43.99;100742.03;2104303;28;20055;-79
2022/10/03 07:40:49;;;;;;;4.72;1.10;;;;;;;29.93;43.17;100743.88;2104755;28;20048;-78
2022/10/03 07:42:41;;;;;;;4.53;0.95;;;;;;;29.90;42.83;100747.63;2096186;28;20539;-78
2022/10/03 07:44:43;;;;;;;8.43;1.70;;;;;;;29.92;42.58;100732.13;2092073;28;20439;-78
2022/10/03 07:46:50;;;;;;;5.78;1.38;;;;;;;30.00;42.62;100735.19;2087794;28;20048;-77
2022/10/03 07:48:35;;;;;;;8.00;2.05;;;;;;;29.90;42.32;100742.19;2096268;28;20044;-78
2022/10/03 07:51:44;;;;;;;3.92;1.15;;;;;;;30.12;41.70;100735.38;2105131;27;21006;-77
2022/10/03 07:53:26;;;;;;;3.67;0.95;;;;;;;30.23;41.57;100738.25;2103222;28;20054;-76
2022/10/03 07:55:18;;;;;;;7.30;1.58;;;;;;;30.33;41.55;100750.28;2103610;28;20492;-76
2022/10/03 07:57:08;;;;;;;5.55;1.20;;;;;;;30.43;41.20;100735.97;2095478;28;20087;-75
2022/10/03 07:58:56;;;;;;;3.40;1.08;;;;;;;30.52;40.50;100744.53;2103077;28;20044;-76
2022/10/03 08:00:24;;;;;;;4.70;0.82;;;;;;;30.64;40.38;100744.56;2111849;28;20138;-77
2022/10/03 08:02:04;;;;;;;4.45;1.10;;;;;;;30.85;39.90;100747.69;2095015;28;20144;-76
2022/10/03 08:04:05;;;;;;;7.18;1.65;;;;;;;30.88;39.62;100745.59;2111200;28;20047;-77
2022/10/03 08:05:46;;;;;;;8.63;1.27;;;;;;;30.88;39.81;100737.41;2069095;28;20802;-76